Time;durP1;ratioP1;P1;durP2;ratioP2;P2;SDS_P1;SDS_P2;PMS_P1;PMS_P2;Temp;Humidity;BMP_temperature;BMP_pressure;BME280_temperature;BME280_humidity;BME280_pressure;Samples;Min_cycle;Max_cycle;Signal;HPM_P1;HPM_P2
2023/08/15 00:00:28;;;;;;;11.13;3.13;;;18.30;99.90;;;;;;4954905;29;20265;-88
2023/08/15 00:02:54;;;;;;;7.55;3.88;;;18.30;99.90;;;;;;4955189;29;20047;-88
2023/08/15 00:05:21;;;;;;;10.90;3.85;;;18.30;99.90;;;;;;4924295;29;20043;-88
2023/08/15 00:07:48;;;;;;;9.15;3.67;;;18.30;99.90;;;;;;4939607;29;20047;-88
2023/08/15 00:10:15;;;;;;;6.45;3.58;;;18.20;99.90;;;;;;4924043;29;20044;-88
2023/08/15 00:12:42;;;;;;;7.47;3.38;;;18.20;99.90;;;;;;4908371;29;20564;-88
2023/08/15 00:15:09;;;;;;;7.22;3.45;;;18.20;99.90;;;;;;4908489;29;20044;-88
2023/08/15 00:17:36;;;;;;;6.93;3.33;;;18.20;99.90;;;;;;4954783;29;20059;-87
2023/08/15 00:20:03;;;;;;;7.63;3.30;;;18.20;99.90;;;;;;4939262;29;20052;-89
2023/08/15 00:22:29;;;;;;;5.80;3.53;;;18.20;99.90;;;;;;4923304;29;20043;-88
2023/08/15 00:24:56;;;;;;;7.93;3.55;;;18.10;99.90;;;;;;4954838;29;20040;-89
2023/08/15 00:27:23;;;;;;;7.25;3.70;;;18.10;99.90;;;;;;4939132;29;20600;-89
2023/08/15 00:29:49;;;;;;;7.90;3.80;;;18.10;99.90;;;;;;4939287;29;20039;-89
2023/08/15 00:32:16;;;;;;;9.20;3.90;;;18.10;99.90;;;;;;4954803;29;20134;-89
2023/08/15 00:34:43;;;;;;;8.40;3.60;;;18.10;99.90;;;;;;4923623;29;20150;-89
2023/08/15 00:37:10;;;;;;;10.65;4.07;;;18.00;99.90;;;;;;4908118;29;20106;-89
2023/08/15 00:39:37;;;;;;;8.85;3.90;;;18.00;99.90;;;;;;4954431;29;20054;-89
2023/08/15 00:42:03;;;;;;;7.40;3.40;;;18.00;99.90;;;;;;4938816;29;20512;-89
2023/08/15 00:44:30;;;;;;;8.70;3.72;;;17.90;99.90;;;;;;4953596;29;20039;-88
2023/08/15 00:46:57;;;;;;;7.25;3.35;;;17.90;99.90;;;;;;4954449;29;20036;-89
2023/08/15 00:49:24;;;;;;;8.02;3.47;;;17.80;99.90;;;;;;4938376;29;20090;-89
2023/08/15 00:51:51;;;;;;;6.90;3.67;;;17.80;99.90;;;;;;4938574;29;20040;-88
2023/08/15 00:54:18;;;;;;;9.38;3.90;;;17.80;99.90;;;;;;4923217;29;20126;-89
2023/08/15 00:56:44;;;;;;;6.85;3.80;;;17.70;99.90;;;;;;4954118;29;20401;-88
2023/08/15 00:59:11;;;;;;;10.27;3.90;;;17.70;99.90;;;;;;4907885;29;20131;-90
2023/08/15 01:01:38;;;;;;;8.07;3.70;;;17.70;99.90;;;;;;4953963;29;20098;-89
2023/08/15 01:04:07;;;;;;;8.88;3.90;;;17.70;99.90;;;;;;4953808;29;20083;-89
2023/08/15 01:06:33;;;;;;;6.38;3.83;;;17.70;99.90;;;;;;4953659;29;20130;-89
2023/08/15 01:09:01;;;;;;;9.82;3.97;;;17.60;99.90;;;;;;4953871;29;20457;-88
2023/08/15 01:11:39;;;;;;;12.65;3.80;;;17.60;99.90;;;;;;4953825;29;20043;-89
2023/08/15 01:14:12;;;;;;;8.55;3.80;;;17.60;99.90;;;;;;4954120;29;20043;-89
2023/08/15 01:16:43;;;;;;;10.43;4.47;;;17.50;99.90;;;;;;4953616;29;20052;-89
2023/08/15 01:19:29;;;;;;;15.88;4.80;;;17.50;99.90;;;;;;4953797;29;20070;-89
2023/08/15 01:21:58;;;;;;;9.90;4.50;;;17.50;99.90;;;;;;4954025;29;20050;-89
2023/08/15 01:24:26;;;;;;;8.07;4.07;;;17.40;99.90;;;;;;4937757;29;20559;-89
2023/08/15 01:26:55;;;;;;;8.43;4.20;;;17.40;99.90;;;;;;4953571;29;20044;-89
2023/08/15 01:29:22;;;;;;;9.60;4.00;;;17.40;99.90;;;;;;4953498;29;20076;-89
2023/08/15 01:31:57;;;;;;;8.32;3.75;;;17.40;99.90;;;;;;4953672;29;20039;-89
2023/08/15 01:34:36;;;;;;;8.45;4.43;;;17.40;99.90;;;;;;4953310;29;20428;-89
2023/08/15 01:37:08;;;;;;;7.05;4.00;;;17.40;99.90;;;;;;4953447;29;20052;-89
2023/08/15 01:39:38;;;;;;;9.38;4.10;;;17.40;99.90;;;;;;4953334;29;20050;-89
2023/08/15 01:42:06;;;;;;;7.85;4.03;;;17.30;99.90;;;;;;4953548;29;20062;-89
2023/08/15 01:44:35;;;;;;;9.80;4.60;;;17.30;99.90;;;;;;4922101;29;20044;-89
2023/08/15 01:47:02;;;;;;;9.35;4.47;;;17.30;99.90;;;;;;4953685;29;20416;-89
2023/08/15 01:49:28;;;;;;;7.05;4.30;;;17.20;99.90;;;;;;4937795;29;20036;-89
2023/08/15 01:51:57;;;;;;;8.95;4.28;;;17.20;99.90;;;;;;4921831;29;20036;-89
2023/08/15 01:54:23;;;;;;;7.60;4.20;;;17.20;99.90;;;;;;4953413;29;20419;-89
2023/08/15 01:56:50;;;;;;;9.77;4.35;;;17.20;99.90;;;;;;4906096;29;20035;-88
2023/08/15 01:59:17;;;;;;;9.45;4.30;;;17.10;99.90;;;;;;4937366;29;20091;-88
2023/08/15 02:01:43;;;;;;;10.50;4.55;;;17.10;99.90;;;;;;4922091;29;20043;-88
2023/08/15 02:04:10;;;;;;;6.60;4.18;;;17.10;99.90;;;;;;4906143;29;20075;-89
2023/08/15 02:06:37;;;;;;;7.53;4.70;;;17.10;99.90;;;;;;4905936;29;20044;-88
2023/08/15 02:09:04;;;;;;;8.02;4.63;;;17.10;99.90;;;;;;4953158;29;20040;-89
2023/08/15 02:11:30;;;;;;;8.60;4.60;;;17.10;99.90;;;;;;4906271;29;20086;-88
2023/08/15 02:13:58;;;;;;;9.45;4.60;;;17.10;99.90;;;;;;4906279;29;20047;-89
2023/08/15 02:16:25;;;;;;;15.23;4.97;;;17.00;99.90;;;;;;4953272;29;20047;-89
2023/08/15 02:18:52;;;;;;;7.35;4.65;;;17.00;99.90;;;;;;4906012;29;20070;-88
2023/08/15 02:21:18;;;;;;;8.45;4.63;;;17.00;99.90;;;;;;4937417;29;20044;-88
2023/08/15 02:23:48;;;;;;;13.75;5.03;;;17.00;99.90;;;;;;4952492;29;20048;-89
2023/08/15 02:26:14;;;;;;;9.07;4.75;;;16.90;99.90;;;;;;4906520;29;20047;-89
2023/08/15 02:28:41;;;;;;;7.68;5.03;;;16.90;99.90;;;;;;4921425;29;20051;-88
2023/08/15 02:31:10;;;;;;;11.02;4.93;;;16.90;99.90;;;;;;4906156;29;20524;-88
2023/08/15 02:33:36;;;;;;;9.68;5.10;;;16.90;99.90;;;;;;4936973;29;20050;-89
2023/08/15 02:36:07;;;;;;;12.75;5.28;;;16.90;99.90;;;;;;4906142;29;20107;-89
2023/08/15 02:38:34;;;;;;;10.05;5.80;;;16.90;99.90;;;;;;4952337;29;20051;-89
2023/08/15 02:41:01;;;;;;;9.80;5.32;;;16.90;99.90;;;;;;4921752;29;20051;-89
2023/08/15 02:43:27;;;;;;;10.60;5.43;;;16.90;99.90;;;;;;4937158;29;20050;-89
2023/08/15 02:45:54;;;;;;;10.65;5.32;;;16.90;99.90;;;;;;4952405;29;20130;-89
2023/08/15 02:48:21;;;;;;;9.00;5.25;;;16.90;99.90;;;;;;4937248;29;20138;-88
2023/08/15 02:50:48;;;;;;;10.15;5.10;;;16.90;99.90;;;;;;4936667;29;20127;-89
2023/08/15 02:53:14;;;;;;;10.20;5.97;;;16.90;99.90;;;;;;4905681;29;20059;-89
2023/08/15 02:55:41;;;;;;;9.98;5.97;;;17.00;99.90;;;;;;4921080;29;20046;-89
2023/08/15 02:58:08;;;;;;;8.68;5.35;;;17.00;99.90;;;;;;4921407;29;20451;-89
2023/08/15 03:00:35;;;;;;;9.07;5.65;;;16.90;99.90;;;;;;4936675;29;20082;-89
2023/08/15 03:03:02;;;;;;;12.25;5.95;;;16.90;99.90;;;;;;4952611;29;20051;-88
2023/08/15 03:05:29;;;;;;;10.70;6.10;;;16.90;99.90;;;;;;4921352;29;20044;-88
2023/08/15 03:07:56;;;;;;;11.88;6.57;;;16.90;99.90;;;;;;4937118;29;20039;-89
2023/08/15 03:10:22;;;;;;;12.27;6.25;;;17.00;99.90;;;;;;4940504;29;20057;-89
2023/08/15 03:12:49;;;;;;;10.45;6.45;;;16.90;99.90;;;;;;4924896;29;20055;-89
2023/08/15 03:15:16;;;;;;;12.52;7.35;;;17.00;99.90;;;;;;4909262;29;20042;-89
2023/08/15 03:17:42;;;;;;;15.52;7.88;;;17.00;99.90;;;;;;4908831;29;20071;-88
2023/08/15 03:20:10;;;;;;;12.40;7.20;;;17.10;99.90;;;;;;4909460;29;20055;-89
2023/08/15 03:22:37;;;;;;;14.02;7.20;;;17.10;99.90;;;;;;4924495;29;20135;-89
2023/08/15 03:25:04;;;;;;;11.52;7.15;;;17.10;99.90;;;;;;4909876;29;20130;-88
2023/08/15 03:27:30;;;;;;;14.90;7.47;;;17.10;99.90;;;;;;4925085;29;20040;-88
2023/08/15 03:29:57;;;;;;;12.15;7.65;;;17.10;99.90;;;;;;4908929;29;20039;-88
2023/08/15 03:32:24;;;;;;;12.10;7.35;;;17.10;99.90;;;;;;4924463;29;20043;-89
2023/08/15 03:34:50;;;;;;;11.48;7.82;;;17.10;99.90;;;;;;4909069;29;20452;-89
2023/08/15 03:37:17;;;;;;;15.27;8.15;;;17.10;99.90;;;;;;4908887;29;20134;-89
2023/08/15 03:39:44;;;;;;;14.43;8.48;;;17.20;99.90;;;;;;4955221;29;20043;-89
2023/08/15 03:42:11;;;;;;;13.23;7.75;;;17.10;99.90;;;;;;4955853;29;20043;-89
2023/08/15 03:44:38;;;;;;;10.18;7.93;;;17.10;99.90;;;;;;4924277;29;20036;-89
2023/08/15 03:47:05;;;;;;;11.70;8.20;;;17.20;99.90;;;;;;4939695;29;20403;-89
2023/08/15 03:49:32;;;;;;;12.85;8.52;;;17.20;99.90;;;;;;4939922;29;20039;-88
2023/08/15 03:51:58;;;;;;;14.88;9.18;;;17.20;99.90;;;;;;4939560;29;20047;-88
2023/08/15 03:54:25;;;;;;;14.20;8.30;;;17.30;99.90;;;;;;4939845;29;20054;-89
2023/08/15 03:56:52;;;;;;;16.55;9.75;;;17.30;99.90;;;;;;4954958;29;20040;-89
2023/08/15 03:59:18;;;;;;;16.67;9.43;;;17.40;99.90;;;;;;4955225;29;20481;-89
2023/08/15 04:01:48;;;;;;;16.88;9.60;;;17.40;99.90;;;;;;4907986;29;20035;-89
2023/08/15 04:04:15;;;;;;;15.77;9.55;;;17.50;99.90;;;;;;4954643;29;20062;-89
2023/08/15 04:06:42;;;;;;;15.38;9.40;;;17.60;99.90;;;;;;4939580;29;20035;-89
2023/08/15 04:09:08;;;;;;;15.25;9.40;;;17.60;99.90;;;;;;4923974;29;20039;-89
2023/08/15 04:11:35;;;;;;;13.75;9.07;;;17.60;99.90;;;;;;4955821;29;20047;-88
2023/08/15 04:14:02;;;;;;;16.25;9.90;;;17.60;99.90;;;;;;4907932;29;20066;-88
2023/08/15 04:16:28;;;;;;;13.93;9.75;;;17.70;99.90;;;;;;4954875;29;20054;-89
2023/08/15 04:18:55;;;;;;;14.55;10.05;;;17.70;99.90;;;;;;4954467;29;20469;-89
2023/08/15 04:21:22;;;;;;;16.33;9.63;;;17.70;99.90;;;;;;4907588;29;20051;-87
2023/08/15 04:23:49;;;;;;;15.32;9.68;;;17.80;99.90;;;;;;4938752;29;20048;-89
2023/08/15 04:26:15;;;;;;;18.55;9.85;;;17.80;99.90;;;;;;4923446;29;20146;-89
2023/08/15 04:28:42;;;;;;;16.25;9.55;;;17.80;99.90;;;;;;4938826;29;20079;-88
2023/08/15 04:31:09;;;;;;;13.88;9.60;;;17.80;99.90;;;;;;4907710;29;20500;-88
2023/08/15 04:33:35;;;;;;;16.42;9.82;;;17.80;99.90;;;;;;4908344;29;20496;-89
2023/08/15 04:36:02;;;;;;;15.23;9.73;;;17.90;99.90;;;;;;4954669;29;20130;-89
2023/08/15 04:38:29;;;;;;;14.95;9.70;;;17.90;99.90;;;;;;4907838;29;20092;-89
2023/08/15 04:40:56;;;;;;;15.20;9.70;;;17.90;99.90;;;;;;4907568;29;20079;-89
2023/08/15 04:43:22;;;;;;;14.07;9.43;;;17.90;99.90;;;;;;4923067;29;20058;-89
2023/08/15 04:45:49;;;;;;;15.35;10.10;;;18.00;99.90;;;;;;4922963;29;20048;-89
2023/08/15 04:48:16;;;;;;;13.35;9.65;;;18.00;99.90;;;;;;4938370;29;20106;-89
2023/08/15 04:50:43;;;;;;;17.58;9.55;;;18.00;99.90;;;;;;4938694;29;20698;-89
2023/08/15 04:53:09;;;;;;;14.02;10.30;;;18.00;99.90;;;;;;4954193;29;20485;-89
2023/08/15 04:55:36;;;;;;;14.13;9.77;;;18.00;99.90;;;;;;4907526;29;20043;-88
2023/08/15 04:58:03;;;;;;;13.77;9.90;;;18.10;99.90;;;;;;4923143;29;20163;-89
2023/08/15 05:00:30;;;;;;;16.00;10.23;;;18.10;99.90;;;;;;4941810;29;20043;-89
2023/08/15 05:02:57;;;;;;;15.15;10.15;;;18.10;99.90;;;;;;4941449;29;20042;-89
2023/08/15 05:05:23;;;;;;;16.60;10.40;;;18.10;99.90;;;;;;4957234;29;20070;-89
2023/08/15 05:07:50;;;;;;;13.32;10.15;;;18.20;99.90;;;;;;4941693;29;20058;-89
2023/08/15 05:10:17;;;;;;;16.17;10.32;;;18.30;99.90;;;;;;4941976;29;20081;-89
2023/08/15 05:12:44;;;;;;;15.85;10.30;;;18.30;99.90;;;;;;4941937;29;20215;-89
2023/08/15 05:15:11;;;;;;;17.45;11.73;;;18.30;99.90;;;;;;4941546;29;20655;-89
2023/08/15 05:17:40;;;;;;;16.05;10.23;;;18.40;99.90;;;;;;4973045;29;20389;-88
2023/08/15 05:20:08;;;;;;;18.38;10.70;;;18.40;99.90;;;;;;4941150;29;20047;-89
2023/08/15 05:22:35;;;;;;;15.88;10.07;;;18.40;99.90;;;;;;4941552;29;20047;-89
2023/08/15 05:25:02;;;;;;;29.50;10.95;;;18.40;99.90;;;;;;4956762;29;20042;-89
2023/08/15 05:27:29;;;;;;;16.70;11.80;;;18.50;99.90;;;;;;4957446;29;20051;-87
2023/08/15 05:29:56;;;;;;;17.27;11.38;;;18.50;99.90;;;;;;4940715;29;20031;-88
2023/08/15 05:32:22;;;;;;;17.67;10.85;;;18.40;99.90;;;;;;4940614;29;20807;-88
2023/08/15 05:34:49;;;;;;;16.23;11.18;;;18.50;99.90;;;;;;4972299;29;20078;-88
2023/08/15 05:37:16;;;;;;;14.40;10.95;;;18.50;99.90;;;;;;4956513;29;20448;-87
2023/08/15 05:39:43;;;;;;;17.17;10.52;;;18.50;99.90;;;;;;4956484;29;20050;-88
2023/08/15 05:42:13;;;;;;;16.85;11.60;;;18.50;99.90;;;;;;4956221;29;20046;-87
2023/08/15 05:44:40;;;;;;;15.85;10.80;;;18.50;99.90;;;;;;4972250;29;20047;-88
2023/08/15 05:47:07;;;;;;;18.58;11.27;;;18.50;99.90;;;;;;4971528;29;20411;-87
2023/08/15 05:49:33;;;;;;;18.85;11.63;;;18.50;99.90;;;;;;4956382;29;20154;-87
2023/08/15 05:52:01;;;;;;;15.88;10.70;;;18.50;99.90;;;;;;4955595;29;20043;-88
2023/08/15 05:54:27;;;;;;;16.27;10.65;;;18.50;99.90;;;;;;4956673;29;20122;-88
2023/08/15 05:56:55;;;;;;;18.98;11.52;;;18.50;99.90;;;;;;4940705;29;20141;-87
2023/08/15 05:59:22;;;;;;;18.10;10.52;;;18.60;99.90;;;;;;5003793;28;20408;-87
2023/08/15 06:01:48;;;;;;;17.70;10.43;;;18.60;99.90;;;;;;4955844;29;20035;-88
2023/08/15 06:04:15;;;;;;;14.75;10.02;;;18.60;99.90;;;;;;4955659;29;20053;-88
2023/08/15 06:06:43;;;;;;;19.10;10.15;;;18.60;99.90;;;;;;4988246;29;20045;-88
2023/08/15 06:09:09;;;;;;;15.25;9.80;;;18.90;99.90;;;;;;4971488;29;20039;-88
2023/08/15 06:11:36;;;;;;;14.90;10.02;;;18.60;99.90;;;;;;4956266;29;20492;-88
2023/08/15 06:14:03;;;;;;;11.57;9.18;;;18.70;99.90;;;;;;4955505;29;20062;-88
2023/08/15 06:16:30;;;;;;;13.05;8.73;;;18.70;99.90;;;;;;4956137;28;20051;-89
2023/08/15 06:18:56;;;;;;;13.10;9.13;;;18.80;99.90;;;;;;4955845;29;20047;-87
2023/08/15 06:21:23;;;;;;;16.38;8.60;;;18.80;99.90;;;;;;4955703;29;20138;-88
2023/08/15 06:23:50;;;;;;;14.35;8.43;;;18.80;99.90;;;;;;4955860;29;20132;-88
2023/08/15 06:26:16;;;;;;;15.27;8.55;;;18.80;99.90;;;;;;4955767;29;20039;-88
2023/08/15 06:28:43;;;;;;;13.23;8.25;;;18.70;99.90;;;;;;4940192;29;20043;-88
2023/08/15 06:31:10;;;;;;;13.77;7.43;;;18.70;99.90;;;;;;4939980;29;20046;-87
2023/08/15 06:33:37;;;;;;;17.13;7.78;;;18.70;99.90;;;;;;4955752;29;20043;-88
2023/08/15 06:36:04;;;;;;;9.98;7.05;;;18.70;99.90;;;;;;4940122;29;20054;-88
2023/08/15 06:38:31;;;;;;;11.63;6.63;;;18.70;99.90;;;;;;4940167;29;20046;-88
2023/08/15 06:40:58;;;;;;;12.13;7.07;;;18.60;99.90;;;;;;4955781;29;20389;-88
2023/08/15 06:43:25;;;;;;;11.98;6.70;;;18.60;99.90;;;;;;4956356;29;20043;-82
2023/08/15 06:45:51;;;;;;;10.13;6.43;;;18.60;99.90;;;;;;4959015;29;20062;-84
2023/08/15 06:48:18;;;;;;;13.27;6.28;;;18.60;99.90;;;;;;4942992;29;20039;-85
2023/08/15 06:50:45;;;;;;;11.85;6.20;;;18.60;99.90;;;;;;4943285;29;20400;-85
2023/08/15 06:53:12;;;;;;;12.20;6.18;;;18.60;99.90;;;;;;4942715;29;20055;-85
2023/08/15 06:55:38;;;;;;;10.55;5.82;;;18.70;99.90;;;;;;4974630;29;20046;-85
2023/08/15 06:58:05;;;;;;;12.13;6.35;;;18.60;99.90;;;;;;4952225;28;20077;-85
2023/08/15 07:00:32;;;;;;;12.57;6.03;;;18.60;99.90;;;;;;4946343;28;20042;-84
2023/08/15 07:02:58;;;;;;;10.70;5.35;;;18.70;99.90;;;;;;4962048;28;20042;-81
2023/08/15 07:05:25;;;;;;;15.82;5.53;;;18.70;99.90;;;;;;4977339;28;20042;-82
2023/08/15 07:07:52;;;;;;;12.65;5.82;;;18.80;99.90;;;;;;4977683;28;20042;-82
2023/08/15 07:10:19;;;;;;;9.35;5.22;;;18.80;99.90;;;;;;4961922;28;20042;-82
2023/08/15 07:12:45;;;;;;;9.70;5.57;;;18.90;99.90;;;;;;4946382;28;20097;-82
2023/08/15 07:15:12;;;;;;;11.75;5.32;;;19.00;99.90;;;;;;4961317;28;20053;-81
2023/08/15 07:17:40;;;;;;;13.25;5.28;;;19.10;99.90;;;;;;4961568;28;20738;-81
2023/08/15 07:20:09;;;;;;;14.43;5.45;;;19.20;99.90;;;;;;4961699;28;20526;-83
2023/08/15 07:22:36;;;;;;;10.80;5.40;;;19.40;99.90;;;;;;4946171;28;20046;-82
2023/08/15 07:25:02;;;;;;;10.48;5.50;;;19.50;99.90;;;;;;4963661;28;20045;-84
2023/08/15 07:27:29;;;;;;;9.13;4.82;;;19.50;99.90;;;;;;4964015;28;20038;-83
2023/08/15 07:29:56;;;;;;;10.95;4.15;;;19.60;99.90;;;;;;4945916;28;20035;-83
2023/08/15 07:32:23;;;;;;;12.90;5.28;;;19.60;99.90;;;;;;4973097;29;20043;-84
2023/08/15 07:34:49;;;;;;;12.88;4.97;;;19.70;99.90;;;;;;4942612;29;20079;-83
2023/08/15 07:37:16;;;;;;;8.90;4.70;;;19.70;99.90;;;;;;4941714;29;20042;-84
2023/08/15 07:39:43;;;;;;;13.30;4.22;;;19.80;99.90;;;;;;4958243;29;20035;-84
2023/08/15 07:42:10;;;;;;;13.88;3.92;;;19.90;99.90;;;;;;4957885;29;20043;-83
2023/08/15 07:44:36;;;;;;;9.25;4.05;;;19.80;99.90;;;;;;4957594;29;20035;-85
2023/08/15 07:47:03;;;;;;;9.63;4.30;;;19.80;99.90;;;;;;4957995;29;20392;-83
2023/08/15 07:49:33;;;;;;;7.13;3.97;;;19.90;99.90;;;;;;4968173;29;20131;-82
2023/08/15 07:52:00;;;;;;;11.68;3.42;;;20.00;99.90;;;;;;4941864;29;20393;-82
2023/08/15 07:54:27;;;;;;;9.32;3.40;;;20.00;99.90;;;;;;4957038;29;20047;-82
2023/08/15 07:56:54;;;;;;;12.50;4.20;;;20.10;99.90;;;;;;4957363;29;20051;-83
2023/08/15 07:59:20;;;;;;;10.52;3.78;;;20.10;99.90;;;;;;4941608;29;20054;-83
2023/08/15 08:01:47;;;;;;;9.13;3.42;;;20.20;99.90;;;;;;4957585;29;20049;-82
2023/08/15 08:04:14;;;;;;;7.03;3.10;;;20.30;99.90;;;;;;4941481;29;20051;-83
2023/08/15 08:06:41;;;;;;;8.73;3.10;;;20.40;99.90;;;;;;4957570;29;20085;-84
2023/08/15 08:09:08;;;;;;;9.75;3.40;;;20.50;99.90;;;;;;4941906;29;20117;-83
2023/08/15 08:11:35;;;;;;;9.15;3.10;;;20.60;99.90;;;;;;4926096;29;20688;-83
2023/08/15 08:14:03;;;;;;;8.65;3.40;;;20.70;99.90;;;;;;4941740;29;20039;-83
2023/08/15 08:16:30;;;;;;;8.10;2.95;;;20.70;99.90;;;;;;4956690;29;20133;-83
2023/08/15 08:18:57;;;;;;;8.95;3.17;;;20.80;99.90;;;;;;4957578;29;20721;-82
2023/08/15 08:21:23;;;;;;;7.57;2.63;;;20.90;99.90;;;;;;4941362;29;20138;-84
2023/08/15 08:23:50;;;;;;;6.32;2.55;;;21.00;99.90;;;;;;4957237;29;20039;-81
2023/08/15 08:26:17;;;;;;;6.60;2.78;;;21.10;99.90;;;;;;4941394;29;20047;-82
2023/08/15 08:28:44;;;;;;;5.90;2.25;;;21.00;99.90;;;;;;4925839;29;20500;-84
2023/08/15 08:31:10;;;;;;;9.48;2.75;;;21.20;99.90;;;;;;4925255;29;20055;-86
2023/08/15 08:33:37;;;;;;;7.95;2.50;;;21.10;99.90;;;;;;4957468;29;20050;-89
2023/08/15 08:36:04;;;;;;;6.43;2.50;;;21.30;99.90;;;;;;4942145;29;20047;-88
2023/08/15 08:38:31;;;;;;;7.40;2.28;;;21.30;99.90;;;;;;4941884;29;20043;-89
2023/08/15 08:40:57;;;;;;;7.82;2.08;;;21.40;99.90;;;;;;4941549;29;20118;-85
2023/08/15 08:43:25;;;;;;;5.95;2.05;;;21.50;99.90;;;;;;4956351;29;20043;-86
2023/08/15 08:45:57;;;;;;;10.02;2.20;;;21.60;99.90;;;;;;4923152;29;20071;-89
2023/08/15 08:48:27;;;;;;;12.43;2.35;;;21.70;99.90;;;;;;4953470;29;20043;-86
2023/08/15 08:50:55;;;;;;;10.40;2.13;;;21.60;99.90;;;;;;4953500;29;20044;-87
2023/08/15 08:53:22;;;;;;;9.50;2.10;;;21.40;99.90;;;;;;4953724;29;20112;-89
2023/08/15 08:55:50;;;;;;;6.85;2.25;;;21.40;99.90;;;;;;4938489;29;20065;-89
2023/08/15 08:58:17;;;;;;;6.35;2.33;;;21.30;99.90;;;;;;4938338;29;20488;-89
2023/08/15 09:00:47;;;;;;;6.72;2.15;;;21.30;99.90;;;;;;4937898;29;20039;-89
2023/08/15 09:03:14;;;;;;;6.65;1.98;;;21.40;99.90;;;;;;4938539;29;20047;-89
2023/08/15 09:05:41;;;;;;;6.47;2.13;;;21.40;99.90;;;;;;4952842;29;20040;-89
2023/08/15 09:08:08;;;;;;;8.77;2.28;;;21.40;99.90;;;;;;4937831;29;20051;-88
2023/08/15 09:10:35;;;;;;;9.13;2.03;;;21.30;99.90;;;;;;4937773;29;20043;-89
2023/08/15 09:13:03;;;;;;;5.93;1.88;;;21.30;99.90;;;;;;4938426;29;20732;-88
2023/08/15 09:15:30;;;;;;;5.35;2.00;;;21.20;99.90;;;;;;4937720;29;20047;-88
2023/08/15 09:17:59;;;;;;;6.28;1.85;;;21.30;99.90;;;;;;4953350;29;20055;-88
2023/08/15 09:20:27;;;;;;;8.23;2.00;;;21.20;99.90;;;;;;4937591;29;20055;-89
2023/08/15 09:22:56;;;;;;;11.95;2.05;;;21.20;99.90;;;;;;4953519;29;20054;-89
2023/08/15 09:25:25;;;;;;;7.82;1.73;;;21.30;99.90;;;;;;4953679;29;20062;-88
2023/08/15 09:27:53;;;;;;;6.78;1.63;;;21.40;99.90;;;;;;4937468;29;20050;-88
2023/08/15 09:30:21;;;;;;;7.40;1.90;;;21.60;99.90;;;;;;4937815;29;20043;-88
2023/08/15 09:32:48;;;;;;;7.57;2.20;;;21.80;99.90;;;;;;4937328;29;20043;-88
2023/08/15 09:35:17;;;;;;;7.50;2.35;;;21.90;99.90;;;;;;4937962;29;20064;-88
2023/08/15 09:37:49;;;;;;;8.02;2.22;;;21.90;99.90;;;;;;4953504;29;20094;-88
2023/08/15 09:40:22;;;;;;;6.82;2.00;;;22.00;99.90;;;;;;4953644;29;20046;-88
2023/08/15 09:42:49;;;;;;;5.65;1.90;;;22.20;99.90;;;;;;4952921;29;20552;-89
2023/08/15 09:45:17;;;;;;;5.03;1.80;;;22.30;99.90;;;;;;4953197;29;20075;-88
2023/08/15 09:47:47;;;;;;;5.55;2.03;;;22.50;99.90;;;;;;4952788;29;20051;-88
2023/08/15 09:50:18;;;;;;;6.90;1.80;;;22.80;99.90;;;;;;4937189;29;20046;-89
2023/08/15 09:52:46;;;;;;;5.97;1.90;;;23.00;99.90;;;;;;4937217;29;20633;-88
2023/08/15 09:55:16;;;;;;;4.93;1.50;;;23.00;99.90;;;;;;4952758;29;20044;-88
2023/08/15 09:57:44;;;;;;;6.68;1.90;;;23.00;99.90;;;;;;4936902;29;20048;-88
2023/08/15 10:00:13;;;;;;;7.32;1.58;;;22.90;99.90;;;;;;4937357;29;20040;-88
2023/08/15 10:02:58;;;;;;;5.40;1.50;;;22.80;99.90;;;;;;4936751;29;20047;-88
2023/08/15 10:05:30;;;;;;;6.43;1.70;;;22.80;99.90;;;;;;4952615;29;20043;-88
2023/08/15 10:07:58;;;;;;;7.90;2.05;;;22.90;99.90;;;;;;4952659;29;20036;-88
2023/08/15 10:10:27;;;;;;;4.63;1.55;;;23.00;99.90;;;;;;4952672;29;20075;-89
2023/08/15 10:12:55;;;;;;;4.97;1.60;;;22.90;99.90;;;;;;4936789;29;20051;-88
2023/08/15 10:15:23;;;;;;;5.45;1.63;;;23.00;99.90;;;;;;4952735;29;20058;-87
2023/08/15 10:17:50;;;;;;;6.30;1.67;;;23.10;99.90;;;;;;4936277;29;20077;-88
2023/08/15 10:20:18;;;;;;;5.47;1.85;;;23.20;99.90;;;;;;4952660;29;20047;-88
2023/08/15 10:22:50;;;;;;;5.75;1.70;;;23.10;99.90;;;;;;4936427;29;20501;-88
2023/08/15 10:25:23;;;;;;;5.85;1.50;;;22.90;99.90;;;;;;4951925;29;20044;-88
2023/08/15 10:27:55;;;;;;;3.92;1.20;;;23.00;99.90;;;;;;4936378;29;20104;-88
2023/08/15 10:30:35;;;;;;;3.53;1.40;;;22.90;99.90;;;;;;4937068;29;20039;-88
2023/08/15 10:33:14;;;;;;;5.70;1.58;;;22.80;99.90;;;;;;4952254;29;20044;-88
2023/08/15 10:35:56;;;;;;;4.40;1.33;;;22.80;99.90;;;;;;4952510;29;20043;-88
2023/08/15 10:38:31;;;;;;;4.13;1.33;;;22.70;99.90;;;;;;4952184;29;20095;-88
2023/08/15 10:41:03;;;;;;;2.85;1.30;;;22.80;99.90;;;;;;4952186;29;20090;-88
2023/08/15 10:43:33;;;;;;;3.70;1.20;;;22.70;99.90;;;;;;4952420;29;20048;-88
2023/08/15 10:46:04;;;;;;;3.92;1.23;;;22.80;99.90;;;;;;4952309;29;20185;-88
2023/08/15 10:48:47;;;;;;;4.78;1.40;;;22.80;99.90;;;;;;4952557;29;20071;-88
2023/08/15 10:51:29;;;;;;;2.00;1.20;;;22.90;99.90;;;;;;4953058;29;20135;-88
2023/08/15 10:54:06;;;;;;;4.80;1.52;;;23.10;99.90;;;;;;4952711;29;20503;-88
2023/08/15 10:56:40;;;;;;;4.82;1.40;;;23.20;99.90;;;;;;4952366;29;20142;-88
2023/08/15 10:59:09;;;;;;;5.35;1.50;;;23.20;99.90;;;;;;4928977;29;20044;-88
2023/08/15 11:01:37;;;;;;;5.65;1.60;;;23.10;99.90;;;;;;4936644;29;20106;-88
2023/08/15 11:04:13;;;;;;;6.43;1.45;;;23.00;99.90;;;;;;4952023;29;20500;-89
2023/08/15 11:06:41;;;;;;;4.60;1.27;;;23.00;99.90;;;;;;4952259;29;20039;-89
2023/08/15 11:09:10;;;;;;;4.50;1.20;;;23.20;99.90;;;;;;4937064;29;20047;-88
2023/08/15 11:11:37;;;;;;;5.32;1.40;;;23.40;99.90;;;;;;4936663;29;20035;-88
2023/08/15 11:14:13;;;;;;;4.07;1.30;;;23.60;99.90;;;;;;4936732;29;20106;-88
2023/08/15 11:16:39;;;;;;;2.95;1.15;;;23.70;99.90;;;;;;4952627;29;20048;-88
2023/08/15 11:19:06;;;;;;;4.80;1.50;;;23.70;99.90;;;;;;4951979;29;20139;-88
2023/08/15 11:21:34;;;;;;;7.53;1.67;;;23.80;99.90;;;;;;4936373;29;20048;-89
2023/08/15 11:24:01;;;;;;;2.92;1.08;;;24.10;99.90;;;;;;4951527;29;20055;-89
2023/08/15 11:26:28;;;;;;;3.83;1.42;;;24.30;99.90;;;;;;4936427;29;20039;-88
2023/08/15 11:28:55;;;;;;;4.60;1.27;;;24.40;99.90;;;;;;4936315;29;20130;-89
2023/08/15 11:31:23;;;;;;;3.97;1.50;;;24.60;99.90;;;;;;4939375;29;20130;-88
2023/08/15 11:33:53;;;;;;;3.72;1.40;;;24.70;99.90;;;;;;4954855;29;20416;-89
2023/08/15 11:36:21;;;;;;;4.82;1.40;;;24.80;99.90;;;;;;4939942;29;20048;-88
2023/08/15 11:38:48;;;;;;;4.38;1.50;;;24.80;99.90;;;;;;4954965;29;20040;-89
2023/08/15 11:41:15;;;;;;;3.35;1.45;;;24.90;99.90;;;;;;4939820;29;20635;-88
2023/08/15 11:43:42;;;;;;;5.03;1.50;;;24.90;99.90;;;;;;4954891;29;20047;-89
2023/08/15 11:46:10;;;;;;;6.05;1.63;;;24.80;99.90;;;;;;4955290;29;20040;-89
2023/08/15 11:48:37;;;;;;;5.07;1.63;;;24.70;99.90;;;;;;4955660;29;20047;-88
2023/08/15 11:51:05;;;;;;;4.88;1.70;;;24.50;99.90;;;;;;4938986;29;20507;-88
2023/08/15 11:53:32;;;;;;;6.68;1.88;;;24.40;99.90;;;;;;4955042;29;20103;-88
2023/08/15 11:55:59;;;;;;;3.22;1.30;;;24.40;99.90;;;;;;4939329;29;20047;-88
2023/08/15 11:58:27;;;;;;;5.25;1.67;;;24.20;99.90;;;;;;4939025;29;20050;-88
2023/08/15 12:01:00;;;;;;;3.90;1.73;;;24.20;99.90;;;;;;4938786;29;20106;-88
2023/08/15 12:03:29;;;;;;;5.05;1.88;;;24.30;99.90;;;;;;4938807;29;20051;-88
2023/08/15 12:05:57;;;;;;;3.67;1.65;;;24.40;99.90;;;;;;4954537;29;20043;-89
2023/08/15 12:08:25;;;;;;;5.10;2.00;;;24.20;99.90;;;;;;4954694;29;20504;-88
2023/08/15 12:11:06;;;;;;;7.32;2.03;;;24.20;99.90;;;;;;4938794;29;20042;-89
2023/08/15 12:13:37;;;;;;;4.03;1.60;;;24.10;99.90;;;;;;4954913;29;20131;-88
2023/08/15 12:16:05;;;;;;;4.85;1.50;;;24.00;99.90;;;;;;4954602;29;20051;-88
2023/08/15 12:18:32;;;;;;;4.82;1.70;;;24.00;99.90;;;;;;4954739;29;20060;-88
2023/08/15 12:21:01;;;;;;;4.15;1.70;;;23.90;99.90;;;;;;4954374;29;20051;-88
2023/08/15 12:23:30;;;;;;;5.55;1.98;;;23.90;99.90;;;;;;4954763;29;20127;-88
2023/08/15 12:25:57;;;;;;;7.13;2.03;;;23.90;99.90;;;;;;4954427;29;20042;-88
2023/08/15 12:28:24;;;;;;;4.13;1.70;;;23.90;99.90;;;;;;4938669;29;20134;-89
2023/08/15 12:30:51;;;;;;;5.68;1.83;;;24.10;99.90;;;;;;4938775;29;20043;-88
2023/08/15 12:33:19;;;;;;;4.85;1.63;;;24.30;99.90;;;;;;4954776;29;20485;-89
2023/08/15 12:35:46;;;;;;;4.28;1.40;;;24.60;99.90;;;;;;4938835;29;20407;-88
2023/08/15 12:38:13;;;;;;;5.78;1.90;;;24.50;99.90;;;;;;4938119;29;20055;-88
2023/08/15 12:40:41;;;;;;;6.20;1.63;;;24.30;99.90;;;;;;4937372;29;20050;-88
2023/08/15 12:43:07;;;;;;;3.83;1.42;;;24.40;99.90;;;;;;4938234;29;20111;-88